Time,TemperatureF,DewpointF,PressureIn,WindDirection,WindDirectionDegrees,WindSpeedMPH,WindSpeedGustMPH,Humidity,HourlyPrecipIn,Conditions,Clouds,dailyrainin,SoftwareType,DateUTC
2013-11-05 00:00:00,23.0,0.1,-100.00,North,-999,0.0,0.0,36,0.00,,,-99.99,FreeWX-Wi 1.01,2013-11-05 05:00:00,
2013-11-05 00:10:00,23.0,0.1,-100.00,North,-999,0.0,0.0,36,0.00,,,-99.99,FreeWX-Wi 1.01,2013-11-05 05:10:00,
2013-11-05 00:20:00,22.8,0.0,-100.00,North,-999,0.0,0.0,36,0.00,,,-99.99,FreeWX-Wi 1.01,2013-11-05 05:20:00,
2013-11-05 00:30:00,22.8,0.0,-100.00,North,-999,0.0,0.0,36,0.00,,,-99.99,FreeWX-Wi 1.01,2013-11-05 05:30:00,
2013-11-05 00:40:00,22.6,-0.2,-100.00,North,-999,0.0,0.0,36,0.00,,,-99.99,FreeWX-Wi 1.01,2013-11-05 05:40:00,
2013-11-05 00:50:00,22.8,0.0,-100.00,North,-999,0.0,0.0,36,0.00,,,-99.99,FreeWX-Wi 1.01,2013-11-05 05:50:00,
2013-11-05 01:00:00,22.6,-0.2,-100.00,North,-999,0.0,0.0,36,0.00,,,-99.99,FreeWX-Wi 1.01,2013-11-05 06:00:00,
2013-11-05 01:10:00,22.8,0.0,-100.00,North,-999,0.0,0.0,36,0.00,,,-99.99,FreeWX-Wi 1.01,2013-11-05 06:10:00,
2013-11-05 01:20:00,22.8,0.0,-100.00,North,-999,0.0,0.0,36,0.00,,,-99.99,FreeWX-Wi 1.01,2013-11-05 06:20:00,
2013-11-05 01:30:00,22.8,0.0,-100.00,North,-999,0.0,0.0,36,0.00,,,-99.99,FreeWX-Wi 1.01,2013-11-05 06:30:00,
2013-11-05 01:39:00,22.6,-0.2,-100.00,North,-999,0.0,0.0,36,0.00,,,-99.99,FreeWX-Wi 1.01,2013-11-05 06:39:00,
2013-11-05 01:50:00,22.5,-0.4,-100.00,North,-999,0.0,0.0,36,0.00,,,-99.99,FreeWX-Wi 1.01,2013-11-05 06:50:00,
2013-11-05 02:00:00,22.3,-0.6,-100.00,North,-999,0.0,0.0,36,0.00,,,-99.99,FreeWX-Wi 1.01,2013-11-05 07:00:00,
2013-11-05 02:10:00,22.1,-0.8,-100.00,North,-999,0.0,0.0,36,0.00,,,-99.99,FreeWX-Wi 1.01,2013-11-05 07:10:00,
2013-11-05 02:20:00,21.7,0.7,-100.00,North,-999,0.0,0.0,39,0.00,,,-99.99,FreeWX-Wi 1.01,2013-11-05 07:20:00,
2013-11-05 02:30:00,21.6,0.5,-100.00,North,-999,0.0,0.0,39,0.00,,,-99.99,FreeWX-Wi 1.01,2013-11-05 07:30:00,
2013-11-05 02:40:00,21.4,0.3,-100.00,North,-999,0.0,0.0,39,0.00,,,-99.99,FreeWX-Wi 1.01,2013-11-05 07:40:00,
2013-11-05 02:50:00,21.2,1.8,-100.00,North,-999,0.0,0.0,42,0.00,,,-99.99,FreeWX-Wi 1.01,2013-11-05 07:50:00,
2013-11-05 03:00:00,21.4,1.4,-100.00,North,-999,0.0,0.0,41,0.00,,,-99.99,FreeWX-Wi 1.01,2013-11-05 08:00:00,
2013-11-05 03:09:00,21.7,3.2,-100.00,North,-999,0.0,0.0,44,0.00,,,-99.99,FreeWX-Wi 1.01,2013-11-05 08:09:00,
2013-11-05 03:20:00,21.9,3.4,-100.00,North,-999,0.0,0.0,44,0.00,,,-99.99,FreeWX-Wi 1.01,2013-11-05 08:20:00,
2013-11-05 03:30:00,22.1,3.6,-100.00,North,-999,0.0,0.0,44,0.00,,,-99.99,FreeWX-Wi 1.01,2013-11-05 08:30:00,
2013-11-05 03:40:00,22.3,3.7,-100.00,North,-999,0.0,0.0,44,0.00,,,-99.99,FreeWX-Wi 1.01,2013-11-05 08:40:00,
2013-11-05 03:50:00,22.5,3.9,-100.00,North,-999,0.0,0.0,44,0.00,,,-99.99,FreeWX-Wi 1.01,2013-11-05 08:50:00,
2013-11-05 04:00:00,22.6,4.1,-100.00,North,-999,0.0,0.0,44,0.00,,,-99.99,FreeWX-Wi 1.01,2013-11-05 09:00:00,
2013-11-05 04:09:00,22.8,4.3,-100.00,North,-999,0.0,0.0,44,0.00,,,-99.99,FreeWX-Wi 1.01,2013-11-05 09:09:00,
2013-11-05 04:19:00,22.8,4.3,-100.00,North,-999,0.0,0.0,44,0.00,,,-99.99,FreeWX-Wi 1.01,2013-11-05 09:19:00,
2013-11-05 04:30:00,22.8,4.3,-100.00,North,-999,0.0,0.0,44,0.00,,,-99.99,FreeWX-Wi 1.01,2013-11-05 09:30:00,
2013-11-05 04:40:00,22.5,3.9,-100.00,North,-999,0.0,0.0,44,0.00,,,-99.99,FreeWX-Wi 1.01,2013-11-05 09:40:00,
2013-11-05 04:50:00,22.5,3.9,-100.00,North,-999,0.0,0.0,44,0.00,,,-99.99,FreeWX-Wi 1.01,2013-11-05 09:50:00,
2013-11-05 05:00:00,22.5,3.9,-100.00,North,-999,0.0,0.0,44,0.00,,,-99.99,FreeWX-Wi 1.01,2013-11-05 10:00:00,
2013-11-05 05:10:00,22.5,3.9,-100.00,North,-999,0.0,0.0,44,0.00,,,-99.99,FreeWX-Wi 1.01,2013-11-05 10:10:00,
2013-11-05 05:19:00,22.3,3.7,-100.00,North,-999,0.0,0.0,44,0.00,,,-99.99,FreeWX-Wi 1.01,2013-11-05 10:19:00,
2013-11-05 05:30:00,22.1,3.6,-100.00,North,-999,0.0,0.0,44,0.00,,,-99.99,FreeWX-Wi 1.01,2013-11-05 10:30:00,
2013-11-05 05:40:00,21.7,3.2,-100.00,North,-999,0.0,0.0,44,0.00,,,-99.99,FreeWX-Wi 1.01,2013-11-05 10:40:00,
2013-11-05 05:50:00,21.4,3.9,-100.00,North,-999,0.0,0.0,46,0.00,,,-99.99,FreeWX-Wi 1.01,2013-11-05 10:50:00,
2013-11-05 06:00:00,21.2,4.1,-100.00,North,-999,0.0,0.0,47,0.00,,,-99.99,FreeWX-Wi 1.01,2013-11-05 11:00:00,
2013-11-05 06:10:00,21.0,3.9,-100.00,North,-999,0.0,0.0,47,0.00,,,-99.99,FreeWX-Wi 1.01,2013-11-05 11:10:00,
2013-11-05 06:20:00,20.8,3.7,-100.00,North,-999,0.0,0.0,47,0.00,,,-99.99,FreeWX-Wi 1.01,2013-11-05 11:20:00,
2013-11-05 06:30:00,20.8,3.7,-100.00,North,-999,0.0,0.0,47,0.00,,,-99.99,FreeWX-Wi 1.01,2013-11-05 11:30:00,
2013-11-05 06:40:00,21.0,4.5,-100.00,North,-999,0.0,0.0,48,0.00,,,-99.99,FreeWX-Wi 1.01,2013-11-05 11:40:00,
2013-11-05 06:50:00,21.2,4.6,-100.00,North,-999,0.0,0.0,48,0.00,,,-99.99,FreeWX-Wi 1.01,2013-11-05 11:50:00,
2013-11-05 07:00:00,21.7,4.6,-100.00,North,-999,0.0,0.0,47,0.00,,,-99.99,FreeWX-Wi 1.01,2013-11-05 12:00:00,
2013-11-05 07:10:00,22.3,5.5,-100.00,North,-999,0.0,0.0,48,0.00,,,-99.99,FreeWX-Wi 1.01,2013-11-05 12:10:00,
2013-11-05 07:20:00,22.6,5.9,-100.00,North,-999,0.0,0.0,48,0.00,,,-99.99,FreeWX-Wi 1.01,2013-11-05 12:20:00,
2013-11-05 07:29:00,23.2,5.9,-100.00,North,-999,0.0,0.0,47,0.00,,,-99.99,FreeWX-Wi 1.01,2013-11-05 12:29:00,
2013-11-05 07:40:00,23.5,6.3,-100.00,North,-999,0.0,0.0,47,0.00,,,-99.99,FreeWX-Wi 1.01,2013-11-05 12:40:00,
2013-11-05 07:50:00,24.1,6.8,-100.00,North,-999,0.0,0.0,47,0.00,,,-99.99,FreeWX-Wi 1.01,2013-11-05 12:50:00,
2013-11-05 08:00:00,24.6,7.3,-100.00,North,-999,0.0,0.0,47,0.00,,,-99.99,FreeWX-Wi 1.01,2013-11-05 13:00:00,
2013-11-05 08:10:00,25.2,7.3,-100.00,North,-999,0.0,0.0,46,0.00,,,-99.99,FreeWX-Wi 1.01,2013-11-05 13:10:00,
2013-11-05 08:20:00,25.9,8.1,-100.00,North,-999,0.0,0.0,46,0.00,,,-99.99,FreeWX-Wi 1.01,2013-11-05 13:20:00,
2013-11-05 08:30:00,26.4,8.1,-100.00,North,-999,0.0,0.0,45,0.00,,,-99.99,FreeWX-Wi 1.01,2013-11-05 13:30:00,
2013-11-05 08:39:00,27.1,7.7,-100.00,North,-999,0.0,0.0,43,0.00,,,-99.99,FreeWX-Wi 1.01,2013-11-05 13:39:00,
2013-11-05 08:50:00,28.0,6.8,-100.00,North,-999,0.0,0.0,40,0.00,,,-99.99,FreeWX-Wi 1.01,2013-11-05 13:50:00,
2013-11-05 08:59:00,28.9,6.6,-100.00,North,-999,0.0,0.0,38,0.00,,,-99.99,FreeWX-Wi 1.01,2013-11-05 13:59:00,
2013-11-05 09:10:00,30.2,5.9,-100.00,North,-999,0.0,0.0,35,0.00,,,-99.99,FreeWX-Wi 1.01,2013-11-05 14:10:00,
2013-11-05 09:20:00,31.3,6.8,-100.00,North,-999,0.0,0.0,35,0.00,,,-99.99,FreeWX-Wi 1.01,2013-11-05 14:20:00,
2013-11-05 09:30:00,32.9,6.3,-100.00,North,-999,0.0,0.0,32,0.00,,,-99.99,FreeWX-Wi 1.01,2013-11-05 14:30:00,
2013-11-05 09:40:00,33.8,6.4,-100.00,North,-999,0.0,0.0,31,0.00,,,-99.99,FreeWX-Wi 1.01,2013-11-05 14:40:00,
2013-11-05 09:50:00,34.9,7.3,-100.00,North,-999,0.0,0.0,31,0.00,,,-99.99,FreeWX-Wi 1.01,2013-11-05 14:50:00,
2013-11-05 10:00:00,36.1,8.4,-100.00,North,-999,0.0,0.0,31,0.00,,,-99.99,FreeWX-Wi 1.01,2013-11-05 15:00:00,
2013-11-05 10:10:00,36.9,9.1,-100.00,North,-999,0.0,0.0,31,0.00,,,-99.99,FreeWX-Wi 1.01,2013-11-05 15:10:00,
2013-11-05 10:20:00,37.6,9.7,-100.00,North,-999,0.0,0.0,31,0.00,,,-99.99,FreeWX-Wi 1.01,2013-11-05 15:20:00,
2013-11-05 10:30:00,38.1,10.2,-100.00,North,-999,0.0,0.0,31,0.00,,,-99.99,FreeWX-Wi 1.01,2013-11-05 15:30:00,
2013-11-05 10:41:00,39.4,10.6,-100.00,North,-999,0.0,0.0,30,0.00,,,-99.99,FreeWX-Wi 1.01,2013-11-05 15:41:00,
2013-11-05 10:51:00,40.1,11.1,-100.00,North,-999,0.0,0.0,30,0.00,,,-99.99,FreeWX-Wi 1.01,2013-11-05 15:51:00,
2013-11-05 11:01:00,40.6,11.7,-100.00,North,-999,0.0,0.0,30,0.00,,,-99.99,FreeWX-Wi 1.01,2013-11-05 16:01:00,
2013-11-05 11:10:00,40.8,11.8,-100.00,North,-999,0.0,0.0,30,0.00,,,-99.99,FreeWX-Wi 1.01,2013-11-05 16:10:00,
2013-11-05 11:21:00,40.8,11.8,-100.00,North,-999,0.0,0.0,30,0.00,,,-99.99,FreeWX-Wi 1.01,2013-11-05 16:21:00,
2013-11-05 11:30:00,41.4,12.2,-100.00,North,-999,0.0,0.0,30,0.00,,,-99.99,FreeWX-Wi 1.01,2013-11-05 16:30:00,
2013-11-05 11:41:00,41.5,12.4,-100.00,North,-999,0.0,0.0,30,0.00,,,-99.99,FreeWX-Wi 1.01,2013-11-05 16:41:00,
2013-11-05 11:51:00,41.9,12.7,-100.00,North,-999,0.0,0.0,30,0.00,,,-99.99,FreeWX-Wi 1.01,2013-11-05 16:51:00,
2013-11-05 12:01:00,42.1,12.9,-100.00,North,-999,0.0,0.0,30,0.00,,,-99.99,FreeWX-Wi 1.01,2013-11-05 17:01:00,
2013-11-05 12:11:00,42.3,13.1,-100.00,North,-999,0.0,0.0,30,0.00,,,-99.99,FreeWX-Wi 1.01,2013-11-05 17:11:00,
2013-11-05 12:21:00,42.8,12.7,-100.00,North,-999,0.0,0.0,29,0.00,,,-99.99,FreeWX-Wi 1.01,2013-11-05 17:21:00,
2013-11-05 12:32:00,43.2,13.1,-100.00,North,-999,0.0,0.0,29,0.00,,,-99.99,FreeWX-Wi 1.01,2013-11-05 17:32:00,
2013-11-05 12:42:00,43.9,13.6,-100.00,North,-999,0.0,0.0,29,0.00,,,-99.99,FreeWX-Wi 1.01,2013-11-05 17:42:00,
2013-11-05 12:51:00,43.9,13.6,-100.00,North,-999,0.0,0.0,29,0.00,,,-99.99,FreeWX-Wi 1.01,2013-11-05 17:51:00,
2013-11-05 13:02:00,43.7,13.6,-100.00,North,-999,0.0,0.0,29,0.00,,,-99.99,FreeWX-Wi 1.01,2013-11-05 18:02:00,
2013-11-05 13:12:00,43.7,13.6,-100.00,North,-999,0.0,0.0,29,0.00,,,-99.99,FreeWX-Wi 1.01,2013-11-05 18:12:00,
2013-11-05 13:22:00,43.7,13.6,-100.00,North,-999,0.0,0.0,29,0.00,,,-99.99,FreeWX-Wi 1.01,2013-11-05 18:22:00,
2013-11-05 13:32:00,43.7,13.6,-100.00,North,-999,0.0,0.0,29,0.00,,,-99.99,FreeWX-Wi 1.01,2013-11-05 18:32:00,
2013-11-05 13:42:00,44.1,13.8,-100.00,North,-999,0.0,0.0,29,0.00,,,-99.99,FreeWX-Wi 1.01,2013-11-05 18:42:00,
2013-11-05 13:52:00,44.4,14.2,-100.00,North,-999,0.0,0.0,29,0.00,,,-99.99,FreeWX-Wi 1.01,2013-11-05 18:52:00,
2013-11-05 14:02:00,44.2,14.0,-100.00,North,-999,0.0,0.0,29,0.00,,,-99.99,FreeWX-Wi 1.01,2013-11-05 19:02:00,
2013-11-05 14:12:00,44.2,14.0,-100.00,North,-999,0.0,0.0,29,0.00,,,-99.99,FreeWX-Wi 1.01,2013-11-05 19:12:00,
2013-11-05 14:21:00,44.2,14.0,-100.00,North,-999,0.0,0.0,29,0.00,,,-99.99,FreeWX-Wi 1.01,2013-11-05 19:21:00,
2013-11-05 14:31:00,44.2,14.0,-100.00,North,-999,0.0,0.0,29,0.00,,,-99.99,FreeWX-Wi 1.01,2013-11-05 19:31:00,
2013-11-05 14:42:00,44.2,14.0,-100.00,North,-999,0.0,0.0,29,0.00,,,-99.99,FreeWX-Wi 1.01,2013-11-05 19:42:00,
2013-11-05 14:52:00,44.2,14.0,-100.00,North,-999,0.0,0.0,29,0.00,,,-99.99,FreeWX-Wi 1.01,2013-11-05 19:52:00,
2013-11-05 15:02:00,44.2,14.0,-100.00,North,-999,0.0,0.0,29,0.00,,,-99.99,FreeWX-Wi 1.01,2013-11-05 20:02:00,
2013-11-05 15:12:00,44.2,14.0,-100.00,North,-999,0.0,0.0,29,0.00,,,-99.99,FreeWX-Wi 1.01,2013-11-05 20:12:00,
2013-11-05 15:22:00,44.2,14.0,-100.00,North,-999,0.0,0.0,29,0.00,,,-99.99,FreeWX-Wi 1.01,2013-11-05 20:22:00,
2013-11-05 15:32:00,44.1,13.8,-100.00,North,-999,0.0,0.0,29,0.00,,,-99.99,FreeWX-Wi 1.01,2013-11-05 20:32:00,
2013-11-05 15:42:00,43.9,13.6,-100.00,North,-999,0.0,0.0,29,0.00,,,-99.99,FreeWX-Wi 1.01,2013-11-05 20:42:00,
2013-11-05 15:53:00,43.7,13.6,-100.00,North,-999,0.0,0.0,29,0.00,,,-99.99,FreeWX-Wi 1.01,2013-11-05 20:53:00,
2013-11-05 16:03:00,43.5,13.5,-100.00,North,-999,0.0,0.0,29,0.00,,,-99.99,FreeWX-Wi 1.01,2013-11-05 21:03:00,
2013-11-05 16:13:00,43.2,13.1,-100.00,North,-999,0.0,0.0,29,0.00,,,-99.99,FreeWX-Wi 1.01,2013-11-05 21:13:00,
2013-11-05 16:22:00,42.6,13.5,-100.00,North,-999,0.0,0.0,30,0.00,,,-99.99,FreeWX-Wi 1.01,2013-11-05 21:22:00,
2013-11-05 16:32:00,42.1,12.9,-100.00,North,-999,0.0,0.0,30,0.00,,,-99.99,FreeWX-Wi 1.01,2013-11-05 21:32:00,
2013-11-05 16:43:00,41.5,12.4,-100.00,North,-999,0.0,0.0,30,0.00,,,-99.99,FreeWX-Wi 1.01,2013-11-05 21:43:00,
2013-11-05 16:52:00,41.0,12.0,-100.00,North,-999,0.0,0.0,30,0.00,,,-99.99,FreeWX-Wi 1.01,2013-11-05 21:52:00,
2013-11-05 17:03:00,40.6,11.7,-100.00,North,-999,0.0,0.0,30,0.00,,,-99.99,FreeWX-Wi 1.01,2013-11-05 22:03:00,
2013-11-05 17:12:00,40.1,11.1,-100.00,North,-999,0.0,0.0,30,0.00,,,-99.99,FreeWX-Wi 1.01,2013-11-05 22:12:00,
2013-11-05 17:23:00,39.6,10.8,-100.00,North,-999,0.0,0.0,30,0.00,,,-99.99,FreeWX-Wi 1.01,2013-11-05 22:23:00,
2013-11-05 17:32:00,39.0,10.9,-100.00,North,-999,0.0,0.0,31,0.00,,,-99.99,FreeWX-Wi 1.01,2013-11-05 22:32:00,
2013-11-05 17:43:00,38.7,10.6,-100.00,North,-999,0.0,0.0,31,0.00,,,-99.99,FreeWX-Wi 1.01,2013-11-05 22:43:00,
2013-11-05 17:53:00,38.3,10.4,-100.00,North,-999,0.0,0.0,31,0.00,,,-99.99,FreeWX-Wi 1.01,2013-11-05 22:53:00,
2013-11-05 18:03:00,38.1,10.2,-100.00,North,-999,0.0,0.0,31,0.00,,,-99.99,FreeWX-Wi 1.01,2013-11-05 23:03:00,
2013-11-05 18:13:00,38.1,10.2,-100.00,North,-999,0.0,0.0,31,0.00,,,-99.99,FreeWX-Wi 1.01,2013-11-05 23:13:00,
2013-11-05 18:23:00,37.9,10.0,-100.00,North,-999,0.0,0.0,31,0.00,,,-99.99,FreeWX-Wi 1.01,2013-11-05 23:23:00,
2013-11-05 18:33:00,37.9,10.0,-100.00,North,-999,0.0,0.0,31,0.00,,,-99.99,FreeWX-Wi 1.01,2013-11-05 23:33:00,
2013-11-05 18:43:00,37.9,10.0,-100.00,North,-999,0.0,0.0,31,0.00,,,-99.99,FreeWX-Wi 1.01,2013-11-05 23:43:00,
2013-11-05 18:53:00,37.8,9.9,-100.00,North,-999,0.0,0.0,31,0.00,,,-99.99,FreeWX-Wi 1.01,2013-11-05 23:53:00,
2013-11-05 19:03:00,37.8,9.9,-100.00,North,-999,0.0,0.0,31,0.00,,,-99.99,FreeWX-Wi 1.01,2013-11-06 00:03:00,
2013-11-05 19:13:00,37.9,10.0,-100.00,North,-999,0.0,0.0,31,0.00,,,-99.99,FreeWX-Wi 1.01,2013-11-06 00:13:00,
2013-11-05 19:23:00,37.9,10.0,-100.00,North,-999,0.0,0.0,31,0.00,,,-99.99,FreeWX-Wi 1.01,2013-11-06 00:23:00,
2013-11-05 19:33:00,38.1,10.2,-100.00,North,-999,0.0,0.0,31,0.00,,,-99.99,FreeWX-Wi 1.01,2013-11-06 00:33:00,
2013-11-05 19:43:00,37.9,10.0,-100.00,North,-999,0.0,0.0,31,0.00,,,-99.99,FreeWX-Wi 1.01,2013-11-06 00:43:00,
2013-11-05 19:53:00,37.9,10.0,-100.00,North,-999,0.0,0.0,31,0.00,,,-99.99,FreeWX-Wi 1.01,2013-11-06 00:53:00,
2013-11-05 20:03:00,37.9,10.0,-100.00,North,-999,0.0,0.0,31,0.00,,,-99.99,FreeWX-Wi 1.01,2013-11-06 01:03:00,
2013-11-05 20:12:00,37.6,9.7,-100.00,North,-999,0.0,0.0,31,0.00,,,-99.99,FreeWX-Wi 1.01,2013-11-06 01:12:00,
2013-11-05 20:23:00,37.4,9.5,-100.00,North,-999,0.0,0.0,31,0.00,,,-99.99,FreeWX-Wi 1.01,2013-11-06 01:23:00,
2013-11-05 20:33:00,37.2,9.3,-100.00,North,-999,0.0,0.0,31,0.00,,,-99.99,FreeWX-Wi 1.01,2013-11-06 01:33:00,
2013-11-05 20:42:00,37.0,9.3,-100.00,North,-999,0.0,0.0,31,0.00,,,-99.99,FreeWX-Wi 1.01,2013-11-06 01:42:00,
2013-11-05 20:53:00,36.9,9.1,-100.00,North,-999,0.0,0.0,31,0.00,,,-99.99,FreeWX-Wi 1.01,2013-11-06 01:53:00,
2013-11-05 21:03:00,36.9,9.1,-100.00,North,-999,0.0,0.0,31,0.00,,,-99.99,FreeWX-Wi 1.01,2013-11-06 02:03:00,
2013-11-05 21:13:00,36.9,9.1,-100.00,North,-999,0.0,0.0,31,0.00,,,-99.99,FreeWX-Wi 1.01,2013-11-06 02:13:00,
2013-11-05 21:23:00,37.0,9.3,-100.00,North,-999,0.0,0.0,31,0.00,,,-99.99,FreeWX-Wi 1.01,2013-11-06 02:23:00,
2013-11-05 21:34:00,37.0,9.3,-100.00,North,-999,0.0,0.0,31,0.00,,,-99.99,FreeWX-Wi 1.01,2013-11-06 02:34:00,
2013-11-05 21:44:00,37.0,9.3,-100.00,North,-999,0.0,0.0,31,0.00,,,-99.99,FreeWX-Wi 1.01,2013-11-06 02:44:00,
2013-11-05 21:54:00,37.0,9.3,-100.00,North,-999,0.0,0.0,31,0.00,,,-99.99,FreeWX-Wi 1.01,2013-11-06 02:54:00,
2013-11-05 22:04:00,37.0,9.3,-100.00,North,-999,0.0,0.0,31,0.00,,,-99.99,FreeWX-Wi 1.01,2013-11-06 03:04:00,
2013-11-05 22:14:00,37.2,9.3,-100.00,North,-999,0.0,0.0,31,0.00,,,-99.99,FreeWX-Wi 1.01,2013-11-06 03:14:00,
2013-11-05 22:24:00,37.2,9.3,-100.00,North,-999,0.0,0.0,31,0.00,,,-99.99,FreeWX-Wi 1.01,2013-11-06 03:24:00,
2013-11-05 22:34:00,37.2,10.8,-100.00,North,-999,0.0,0.0,33,0.00,,,-99.99,FreeWX-Wi 1.01,2013-11-06 03:34:00,
2013-11-05 22:43:00,37.0,10.6,-100.00,North,-999,0.0,0.0,33,0.00,,,-99.99,FreeWX-Wi 1.01,2013-11-06 03:43:00,
2013-11-05 22:54:00,36.9,10.4,-100.00,North,-999,0.0,0.0,33,0.00,,,-99.99,FreeWX-Wi 1.01,2013-11-06 03:54:00,
2013-11-05 23:03:00,36.7,10.4,-100.00,North,-999,0.0,0.0,33,0.00,,,-99.99,FreeWX-Wi 1.01,2013-11-06 04:03:00,
2013-11-05 23:14:00,36.3,10.0,-100.00,North,-999,0.0,0.0,33,0.00,,,-99.99,FreeWX-Wi 1.01,2013-11-06 04:14:00,
2013-11-05 23:25:00,36.3,10.0,-100.00,North,-999,0.0,0.0,33,0.00,,,-99.99,FreeWX-Wi 1.01,2013-11-06 04:25:00,
2013-11-05 23:35:00,36.3,10.0,-100.00,North,-999,0.0,0.0,33,0.00,,,-99.99,FreeWX-Wi 1.01,2013-11-06 04:35:00,
2013-11-05 23:45:00,36.1,9.9,-100.00,North,-999,0.0,0.0,33,0.00,,,-99.99,FreeWX-Wi 1.01,2013-11-06 04:45:00,
2013-11-05 23:55:00,36.1,9.9,-100.00,North,-999,0.0,0.0,33,0.00,,,-99.99,FreeWX-Wi 1.01,2013-11-06 04:55:00,